Погода Пежхницана 2 недели

Свентокшиское воеводство, Польша

15 - 28 июля
  • 15июля
    Сегодня
    +18°
    +29°
    Ясно и безоблачно
    ВремяПогодаТемператураВлажностьДавлениеВетер, м/сВероятность осадков
    02:00Облачно с прояснениями+18°C95 %738 мм1.0 м/с2 %
    05:00Практически безоблачно+17°C97 %739 мм1.0 м/с2 %
    08:00Ясно и безоблачно+22°C82 %740 мм1.3 м/с2 %
    11:00Небольшая облачность+26°C63 %740 мм1.5 м/с3 %
    14:00Ясно и безоблачно+28°C50 %739 мм1.8 м/с2 %
    17:00Практически безоблачно+28°C44 %739 мм2.0 м/с2 %
    20:00Небольшая облачность+26°C62 %739 мм1.5 м/с2 %
    23:00Ясно и безоблачно+21°C74 %738 мм1.2 м/с2 %
  • 16июля
    Вторник
    +18°
    +32°
    Небольшая облачность, ливень
    ВремяПогодаТемператураВлажностьДавлениеВетер, м/сВероятность осадков
    02:00Ясно и безоблачно+20°C76 %738 мм1.4 м/с2 %
    05:00Ясно и безоблачно+19°C84 %738 мм1.3 м/с2 %
    08:00Ясно и безоблачно+24°C75 %738 мм2.7 м/с2 %
    11:00Ясно и безоблачно+29°C64 %737 мм2.5 м/с2 %
    14:00Небольшая облачность, ливень+29°C63 %737 мм2.7 м/с27 %
    17:00Облачно с прояснениями+26°C56 %736 мм2.8 м/с39 %
    20:00Облачно с прояснениями+25°C69 %737 мм1.9 м/с43 %
    23:00Облачно с прояснениями+22°C92 %738 мм1.2 м/с20 %
  • 17июля
    Среда
    +16°
    +27°
    Практически безоблачно
    ВремяПогодаТемператураВлажностьДавлениеВетер, м/сВероятность осадков
    02:00Облачно с прояснениями+20°C94 %739 мм1.8 м/с6 %
    05:00Ясно и безоблачно+19°C96 %740 мм1.2 м/с2 %
    08:00Ясно и безоблачно+22°C74 %741 мм2.0 м/с2 %
    11:00Ясно и безоблачно+26°C47 %742 мм2.2 м/с3 %
    14:00Практически безоблачно+27°C44 %742 мм2.8 м/с6 %
    17:00Ясно и безоблачно+26°C46 %742 мм2.5 м/с5 %
    20:00Небольшая облачность+24°C68 %742 мм1.6 м/с7 %
    23:00Ясно и безоблачно+21°C68 %743 мм1.7 м/с10 %
  • 18июля
    Четверг
    +15°
    +27°
    Практически безоблачно
    ВремяПогодаТемператураВлажностьДавлениеВетер, м/сВероятность осадков
    02:00Ясно и безоблачно+19°C64 %743 мм1.8 м/с14 %
    05:00Ясно и безоблачно+17°C71 %743 мм1.2 м/с15 %
    08:00Небольшая облачность+21°C60 %744 мм1.8 м/с8 %
    11:00Ясно и безоблачно+25°C44 %744 мм1.9 м/с2 %
    14:00Практически безоблачно+26°C41 %744 мм2.3 м/с3 %
    17:00Небольшая облачность+27°C40 %743 мм2.8 м/с2 %
    20:00Практически безоблачно+24°C54 %743 мм1.6 м/с2 %
    23:00Облачно с прояснениями+19°C66 %743 мм1.3 м/с2 %
  • 19июля
    Пятница
    +15°
    +27°
    Небольшая облачность
    ВремяПогодаТемператураВлажностьДавлениеВетер, м/сВероятность осадков
    02:00Ясно и безоблачно+17°C66 %743 мм1.4 м/с2 %
    05:00Практически безоблачно+15°C71 %742 мм1.2 м/с2 %
    08:00Практически безоблачно+21°C62 %743 мм1.5 м/с2 %
    11:00Практически безоблачно+25°C39 %743 мм2.2 м/с6 %
    14:00Небольшая облачность+26°C35 %742 мм2.9 м/с16 %
    17:00Облачно с прояснениями+26°C36 %741 мм2.8 м/с14 %
    20:00Ясно и безоблачно+24°C51 %741 мм1.8 м/с3 %
    23:00Ясно и безоблачно+19°C66 %741 мм1.4 м/с2 %
Мы используем cookies
Соглашаюсь